Time;durP1;ratioP1;P1;durP2;ratioP2;P2;SDS_P1;SDS_P2;PMS_P1;PMS_P2;Temp;Humidity;BMP_temperature;BMP_pressure;BME280_temperature;BME280_humidity;BME280_pressure;Samples;Min_cycle;Max_cycle;Signal;HPM_P1;HPM_P2
2022/06/07 00:00:52;;;;;;;4.32;1.55;;;16.40;99.90;;;;;;5046857;28;20216;-44
2022/06/07 00:03:23;;;;;;;2.15;1.70;;;16.40;99.90;;;;;;5028481;28;20198;-45
2022/06/07 00:05:51;;;;;;;6.20;1.88;;;16.40;99.90;;;;;;5029296;28;20242;-45
2022/06/07 00:08:19;;;;;;;4.00;1.90;;;16.30;99.90;;;;;;5047393;28;20291;-45
2022/06/07 00:10:46;;;;;;;3.17;1.70;;;16.30;99.90;;;;;;5046997;28;20292;-45
2022/06/07 00:13:15;;;;;;;1.55;1.45;;;16.30;99.90;;;;;;5047990;28;20588;-46
2022/06/07 00:15:43;;;;;;;3.25;1.80;;;16.20;99.90;;;;;;5046868;28;20341;-44
2022/06/07 00:18:14;;;;;;;3.03;1.55;;;16.20;99.90;;;;;;5046640;28;20629;-45
2022/06/07 00:20:42;;;;;;;1.98;1.60;;;16.20;99.90;;;;;;5043103;28;20580;-45
2022/06/07 00:23:13;;;;;;;3.03;1.63;;;16.10;99.90;;;;;;5030380;28;20602;-45
2022/06/07 00:25:44;;;;;;;1.73;1.63;;;16.10;99.90;;;;;;5029460;28;20788;-45
2022/06/07 00:28:12;;;;;;;5.00;1.60;;;16.10;99.90;;;;;;5039549;28;20204;-45
2022/06/07 00:30:39;;;;;;;2.67;1.77;;;16.10;99.90;;;;;;5038297;28;20663;-45
2022/06/07 00:33:09;;;;;;;2.97;1.58;;;16.10;99.90;;;;;;5031414;28;20225;-45
2022/06/07 00:35:36;;;;;;;2.70;1.60;;;16.00;99.90;;;;;;5045382;28;20273;-46
2022/06/07 00:38:05;;;;;;;2.67;1.60;;;16.00;99.90;;;;;;5049860;28;20204;-45
2022/06/07 00:40:32;;;;;;;2.53;1.52;;;16.00;99.90;;;;;;5050325;28;20744;-45
2022/06/07 00:43:00;;;;;;;2.30;1.45;;;16.00;99.90;;;;;;5050739;28;20675;-45
2022/06/07 00:45:28;;;;;;;2.97;1.63;;;16.00;99.90;;;;;;5050434;28;20226;-46
2022/06/07 00:47:57;;;;;;;2.95;1.55;;;15.90;99.90;;;;;;5051787;28;20281;-45
2022/06/07 00:50:40;;;;;;;3.03;1.60;;;15.90;99.90;;;;;;5042879;28;20772;-46
2022/06/07 00:53:20;;;;;;;2.03;1.50;;;15.90;99.90;;;;;;5031768;28;20209;-45
2022/06/07 00:55:49;;;;;;;2.08;1.83;;;15.90;99.90;;;;;;5043182;28;20216;-45
2022/06/07 00:58:19;;;;;;;3.05;1.60;;;15.90;99.90;;;;;;5043556;28;20497;-45
2022/06/07 01:00:49;;;;;;;1.70;1.52;;;15.80;99.90;;;;;;5038126;28;20623;-45
2022/06/07 01:03:18;;;;;;;4.35;2.08;;;15.80;99.90;;;;;;5048474;28;20675;-45
2022/06/07 01:05:47;;;;;;;2.80;1.88;;;15.80;99.90;;;;;;5066995;28;20301;-45
2022/06/07 01:11:08;;;;;;;4.45;1.80;;;15.80;99.90;;;;;;5057655;28;20682;-45
2022/06/07 01:13:36;;;;;;;3.47;1.70;;;15.70;99.90;;;;;;5045845;28;20206;-45
2022/06/07 01:16:09;;;;;;;3.08;1.70;;;15.70;99.90;;;;;;5053497;28;20200;-45
2022/06/07 01:18:36;;;;;;;2.47;1.85;;;15.70;99.90;;;;;;5057257;28;20290;-45
2022/06/07 01:21:22;;;;;;;3.10;1.50;;;15.70;99.90;;;;;;5060789;28;20295;-45
2022/06/07 01:23:53;;;;;;;2.50;1.90;;;15.60;99.90;;;;;;5066353;28;20258;-45
2022/06/07 01:26:21;;;;;;;3.25;2.00;;;15.60;99.90;;;;;;5050876;28;20212;-45
2022/06/07 01:28:48;;;;;;;2.85;1.52;;;15.60;99.90;;;;;;5056212;28;20489;-45
2022/06/07 01:31:16;;;;;;;3.28;1.67;;;15.60;99.90;;;;;;5043369;28;20204;-45
2022/06/07 01:33:44;;;;;;;3.30;1.83;;;15.60;99.90;;;;;;5049159;28;20703;-45
2022/06/07 01:36:17;;;;;;;3.22;1.88;;;15.60;99.90;;;;;;5049345;28;20231;-46
2022/06/07 01:41:53;;;;;;;3.17;2.00;;;15.60;99.90;;;;;;5049487;28;20624;-34
2022/06/07 01:44:23;;;;;;;4.32;1.90;;;15.50;99.90;;;;;;5034986;28;20259;-34
2022/06/07 01:46:51;;;;;;;3.35;2.20;;;15.50;99.90;;;;;;5029924;28;20217;-34
2022/06/07 01:49:18;;;;;;;4.72;2.10;;;15.50;99.90;;;;;;5028612;28;20201;-34
2022/06/07 01:51:46;;;;;;;3.40;1.95;;;15.40;99.90;;;;;;5028058;28;20219;-34
2022/06/07 01:54:16;;;;;;;4.10;2.20;;;15.40;99.90;;;;;;5029061;28;20208;-34
2022/06/07 01:56:45;;;;;;;4.65;1.90;;;15.40;99.90;;;;;;5027809;28;20290;-34
2022/06/07 01:59:13;;;;;;;3.58;2.17;;;15.40;99.90;;;;;;5029710;28;20236;-34
2022/06/07 02:01:44;;;;;;;4.63;1.90;;;15.40;99.90;;;;;;5011497;28;20632;-34
2022/06/07 02:04:11;;;;;;;3.58;1.80;;;15.40;99.90;;;;;;5029513;28;20371;-33
2022/06/07 02:06:41;;;;;;;4.68;2.10;;;15.40;99.90;;;;;;5029118;28;20209;-34
2022/06/07 02:09:10;;;;;;;3.03;1.88;;;15.40;99.90;;;;;;5027312;28;20765;-45
2022/06/07 02:11:40;;;;;;;3.47;2.03;;;15.30;99.90;;;;;;5029022;28;20292;-45
2022/06/07 02:14:08;;;;;;;4.50;2.03;;;15.30;99.90;;;;;;5028619;28;20233;-45
2022/06/07 02:16:36;;;;;;;3.88;2.38;;;15.30;99.90;;;;;;5031941;28;20580;-45
2022/06/07 02:19:03;;;;;;;3.20;1.90;;;15.30;99.90;;;;;;5046739;28;20297;-46
2022/06/07 02:21:32;;;;;;;3.87;1.83;;;15.30;99.90;;;;;;5030475;28;20691;-44
2022/06/07 02:23:59;;;;;;;5.87;2.10;;;15.30;99.90;;;;;;5029002;28;20592;-45
2022/06/07 02:26:40;;;;;;;2.65;2.08;;;15.20;99.90;;;;;;5029448;28;20220;-45
2022/06/07 02:29:16;;;;;;;4.20;2.22;;;15.20;99.90;;;;;;5028634;28;20199;-45
2022/06/07 02:31:51;;;;;;;4.27;2.33;;;15.20;99.90;;;;;;5045042;28;20203;-45
2022/06/07 02:34:20;;;;;;;5.03;2.27;;;15.20;99.90;;;;;;5035418;28;20674;-46
2022/06/07 02:36:57;;;;;;;5.00;2.10;;;15.20;99.90;;;;;;5033134;28;20572;-45
2022/06/07 02:39:30;;;;;;;3.50;1.92;;;15.10;99.90;;;;;;5044365;28;20226;-45
2022/06/07 02:42:02;;;;;;;3.43;2.00;;;15.10;99.90;;;;;;5028376;28;20627;-45
2022/06/07 02:44:32;;;;;;;2.33;2.07;;;15.10;99.90;;;;;;5046613;28;20216;-45
2022/06/07 02:46:59;;;;;;;2.87;2.00;;;15.10;99.90;;;;;;5048393;28;20204;-45
2022/06/07 02:49:26;;;;;;;4.93;2.00;;;15.10;99.90;;;;;;5046568;28;20199;-46
2022/06/07 02:51:53;;;;;;;3.43;2.30;;;15.10;99.90;;;;;;5030850;28;20271;-45
2022/06/07 02:54:36;;;;;;;2.43;1.87;;;15.10;99.90;;;;;;5038704;28;20226;-45
2022/06/07 02:57:04;;;;;;;3.50;2.10;;;15.00;99.90;;;;;;5047935;28;20423;-46
2022/06/07 02:59:33;;;;;;;3.63;2.10;;;15.00;99.90;;;;;;5053979;28;20282;-46
2022/06/07 03:02:01;;;;;;;3.10;1.60;;;15.00;99.90;;;;;;5068003;28;20200;-46
2022/06/07 03:04:29;;;;;;;2.50;2.00;;;15.00;99.90;;;;;;5067282;28;20231;-45
2022/06/07 03:06:56;;;;;;;3.13;2.03;;;15.00;99.90;;;;;;5064858;28;20674;-46
2022/06/07 03:09:23;;;;;;;4.37;1.83;;;15.00;99.90;;;;;;5041532;28;20201;-45
2022/06/07 03:11:50;;;;;;;3.37;2.10;;;15.00;99.90;;;;;;5033432;28;20619;-45
2022/06/07 03:14:20;;;;;;;4.10;2.10;;;15.00;99.90;;;;;;5027432;28;20236;-46
2022/06/07 03:16:55;;;;;;;2.57;1.70;;;14.90;99.90;;;;;;5028104;28;20205;-46
2022/06/07 03:19:22;;;;;;;4.10;1.60;;;14.90;99.90;;;;;;5047300;28;20204;-45
2022/06/07 03:21:50;;;;;;;4.60;2.23;;;14.90;99.90;;;;;;5047578;28;20212;-46
2022/06/07 03:24:17;;;;;;;3.93;1.90;;;14.90;99.90;;;;;;5043466;28;20219;-45
2022/06/07 03:26:44;;;;;;;4.20;2.00;;;14.90;99.90;;;;;;5028013;28;20247;-45
2022/06/07 03:29:11;;;;;;;2.92;2.10;;;14.90;99.90;;;;;;5043536;28;20200;-45
2022/06/07 03:31:39;;;;;;;4.38;1.85;;;14.90;99.90;;;;;;5047767;28;20307;-46
2022/06/07 03:34:07;;;;;;;3.87;1.90;;;14.90;99.90;;;;;;5047243;28;20226;-45
2022/06/07 03:36:37;;;;;;;2.37;1.93;;;14.90;99.90;;;;;;5047244;28;20254;-44
2022/06/07 03:39:09;;;;;;;4.20;2.10;;;14.90;99.90;;;;;;5047545;28;20303;-45
2022/06/07 03:41:39;;;;;;;3.90;1.90;;;14.90;99.90;;;;;;5047508;28;20216;-45
2022/06/07 03:44:09;;;;;;;2.80;2.10;;;14.90;99.90;;;;;;5047408;28;20203;-45
2022/06/07 03:46:36;;;;;;;5.20;1.80;;;14.90;99.90;;;;;;5046997;28;20235;-45
2022/06/07 03:49:04;;;;;;;4.00;2.10;;;14.90;99.90;;;;;;5047143;28;20199;-45
2022/06/07 03:51:32;;;;;;;3.10;1.83;;;14.90;99.90;;;;;;5047796;28;20207;-44
2022/06/07 03:54:03;;;;;;;3.57;2.43;;;14.90;99.90;;;;;;5046996;28;20655;-45
2022/06/07 03:56:34;;;;;;;4.20;2.20;;;14.90;99.90;;;;;;5050415;28;20200;-45
2022/06/07 03:59:02;;;;;;;4.00;2.20;;;14.90;99.90;;;;;;5045097;28;20659;-44
2022/06/07 04:01:29;;;;;;;3.87;1.93;;;15.00;99.90;;;;;;5032812;28;20211;-44
2022/06/07 04:04:01;;;;;;;4.27;2.40;;;15.00;99.90;;;;;;5031591;28;20213;-45
2022/06/07 04:06:32;;;;;;;3.70;2.05;;;15.00;99.90;;;;;;5031639;28;20240;-45
2022/06/07 04:09:00;;;;;;;3.80;2.25;;;15.00;99.90;;;;;;5034074;28;20580;-44
2022/06/07 04:11:28;;;;;;;3.13;2.20;;;15.10;99.90;;;;;;5051074;28;20200;-45
2022/06/07 04:13:56;;;;;;;4.72;2.25;;;15.10;99.90;;;;;;5049558;28;20211;-44
2022/06/07 04:16:28;;;;;;;4.63;2.13;;;15.20;99.90;;;;;;5049918;28;20310;-45
2022/06/07 04:18:56;;;;;;;3.73;2.23;;;15.20;99.90;;;;;;5045214;28;20208;-45
2022/06/07 04:21:24;;;;;;;3.97;2.20;;;15.30;99.90;;;;;;5031509;28;20224;-44
2022/06/07 04:23:53;;;;;;;4.50;2.07;;;15.30;99.90;;;;;;5029930;28;20228;-44
2022/06/07 04:26:25;;;;;;;3.87;2.23;;;15.30;99.90;;;;;;5030892;28;20310;-44
2022/06/07 04:28:53;;;;;;;5.27;2.37;;;15.40;99.90;;;;;;5031045;28;20201;-44
2022/06/07 04:31:24;;;;;;;5.05;2.00;;;15.40;99.90;;;;;;5030159;28;20268;-44
2022/06/07 04:33:59;;;;;;;3.13;2.10;;;15.40;99.90;;;;;;5031435;28;20212;-44
2022/06/07 04:36:27;;;;;;;5.47;2.33;;;15.50;99.90;;;;;;5040947;28;20211;-44
2022/06/07 04:38:57;;;;;;;4.67;2.43;;;15.50;99.90;;;;;;5050498;28;20211;-44
2022/06/07 04:41:27;;;;;;;9.13;3.23;;;15.50;99.90;;;;;;5050476;28;20199;-44
2022/06/07 04:43:57;;;;;;;4.50;2.60;;;15.60;99.90;;;;;;5050622;28;20211;-44
2022/06/07 04:46:27;;;;;;;7.63;2.83;;;15.60;99.90;;;;;;5050207;28;20224;-44
2022/06/07 04:48:54;;;;;;;5.35;2.25;;;15.60;99.90;;;;;;5049167;28;20697;-44
2022/06/07 04:51:33;;;;;;;4.73;2.53;;;15.60;99.90;;;;;;5050067;28;20295;-44
2022/06/07 04:54:04;;;;;;;3.00;2.23;;;15.70;99.90;;;;;;5044974;28;20232;-44
2022/06/07 04:56:34;;;;;;;4.17;2.60;;;15.80;99.90;;;;;;5030610;28;20239;-44
2022/06/07 04:59:03;;;;;;;5.23;2.40;;;15.80;99.90;;;;;;5029685;28;20674;-44
2022/06/07 05:01:42;;;;;;;5.97;2.30;;;15.80;99.90;;;;;;5046932;28;20717;-44
2022/06/07 05:04:11;;;;;;;3.38;2.05;;;15.90;99.90;;;;;;5049357;28;20594;-44
2022/06/07 05:06:41;;;;;;;3.43;2.60;;;15.90;99.90;;;;;;5035618;28;20327;-45
2022/06/07 05:09:14;;;;;;;6.55;2.83;;;16.00;99.90;;;;;;5040433;28;20196;-44
2022/06/07 05:11:51;;;;;;;4.10;2.63;;;16.00;99.90;;;;;;5044855;28;20196;-44
2022/06/07 05:14:21;;;;;;;5.80;2.60;;;16.10;99.90;;;;;;5042259;28;20211;-44
2022/06/07 05:16:49;;;;;;;6.25;2.78;;;16.10;99.90;;;;;;5036640;28;20219;-44
2022/06/07 05:19:18;;;;;;;3.10;2.60;;;16.20;99.90;;;;;;5044225;28;20204;-44
2022/06/07 05:21:46;;;;;;;4.60;2.70;;;16.20;99.90;;;;;;5057568;28;20199;-44
2022/06/07 05:24:14;;;;;;;4.17;2.50;;;16.30;99.90;;;;;;5036059;28;20303;-44
2022/06/07 05:26:53;;;;;;;4.97;2.63;;;16.40;99.90;;;;;;5063048;28;20219;-44
2022/06/07 05:29:41;;;;;;;7.57;3.08;;;16.50;99.90;;;;;;5057369;28;20225;-44
2022/06/07 05:32:13;;;;;;;6.63;2.63;;;16.60;99.90;;;;;;5036019;28;20573;-44
2022/06/07 05:34:46;;;;;;;4.90;2.60;;;16.60;99.90;;;;;;5029898;28;20254;-44
2022/06/07 05:37:20;;;;;;;7.55;2.88;;;16.60;99.90;;;;;;5068007;28;20195;-44
2022/06/07 05:39:52;;;;;;;5.03;2.50;;;16.70;99.90;;;;;;5067194;28;20215;-44
2022/06/07 05:42:27;;;;;;;4.97;2.37;;;16.70;99.90;;;;;;5038473;28;20209;-44
2022/06/07 05:44:54;;;;;;;4.57;2.47;;;16.80;99.90;;;;;;5037892;28;20543;-44
2022/06/07 05:47:22;;;;;;;4.73;2.30;;;16.90;99.90;;;;;;5061046;28;20206;-44
2022/06/07 05:49:49;;;;;;;8.25;2.97;;;16.90;99.90;;;;;;5048660;28;20582;-44
2022/06/07 05:52:17;;;;;;;3.87;2.10;;;17.00;99.90;;;;;;5047857;28;20192;-44
2022/06/07 05:54:45;;;;;;;3.78;2.28;;;17.00;99.90;;;;;;5034806;28;20718;-44
2022/06/07 05:57:14;;;;;;;4.63;2.03;;;17.10;99.90;;;;;;5051167;28;20641;-44
2022/06/07 05:59:41;;;;;;;5.00;2.17;;;17.20;99.90;;;;;;5048884;28;20211;-44
2022/06/07 06:02:11;;;;;;;3.72;1.95;;;17.30;99.90;;;;;;5061124;28;20631;-44
2022/06/07 06:04:38;;;;;;;5.28;2.08;;;17.30;99.90;;;;;;5051769;28;20656;-44
2022/06/07 06:07:05;;;;;;;6.00;1.70;;;17.40;99.90;;;;;;5054660;28;20609;-43
2022/06/07 06:12:23;;;;;;;4.28;1.45;;;17.50;99.90;;;;;;5035233;28;20223;-44
2022/06/07 06:14:52;;;;;;;6.30;1.73;;;17.60;99.90;;;;;;5035646;28;20209;-44
2022/06/07 06:17:20;;;;;;;4.82;2.00;;;17.60;99.90;;;;;;5031934;28;20697;-43
2022/06/07 06:19:47;;;;;;;4.85;1.90;;;17.70;99.90;;;;;;5058339;28;20195;-44
2022/06/07 06:22:16;;;;;;;4.85;2.17;;;17.80;99.90;;;;;;5059836;28;20733;-44
2022/06/07 06:24:46;;;;;;;5.80;2.17;;;17.90;99.90;;;;;;5060474;28;20208;-44
2022/06/07 06:27:18;;;;;;;4.43;2.40;;;17.90;99.90;;;;;;5056117;28;20232;-44
2022/06/07 06:29:47;;;;;;;5.65;1.60;;;18.00;99.90;;;;;;5047153;28;20564;-44
2022/06/07 06:32:17;;;;;;;2.42;1.58;;;18.00;99.90;;;;;;5032591;28;20641;-44
2022/06/07 06:34:47;;;;;;;4.28;1.77;;;18.10;99.90;;;;;;5041531;28;20208;-44
2022/06/07 06:37:14;;;;;;;3.13;1.40;;;18.20;99.90;;;;;;5048078;28;20298;-44
2022/06/07 06:39:41;;;;;;;4.90;1.80;;;18.30;99.90;;;;;;5045237;28;20598;-44
2022/06/07 06:42:11;;;;;;;3.67;1.70;;;18.30;99.90;;;;;;5044973;28;20216;-44
2022/06/07 06:44:49;;;;;;;4.40;1.65;;;18.30;99.90;;;;;;5046937;28;20663;-44
2022/06/07 06:47:18;;;;;;;2.53;1.40;;;18.40;99.90;;;;;;5066643;28;20235;-43
2022/06/07 06:49:49;;;;;;;3.15;1.33;;;18.40;99.90;;;;;;5046191;28;20212;-44
2022/06/07 06:52:20;;;;;;;3.67;1.60;;;18.50;99.90;;;;;;5042806;28;20205;-44
2022/06/07 06:54:47;;;;;;;3.65;1.67;;;18.60;99.90;;;;;;5045813;28;20217;-44
2022/06/07 06:57:18;;;;;;;2.47;1.60;;;18.60;99.90;;;;;;5068047;28;20216;-44
2022/06/07 06:59:51;;;;;;;2.75;1.55;;;18.60;99.90;;;;;;5057823;28;20792;-44
2022/06/07 07:02:20;;;;;;;5.10;1.90;;;18.70;99.90;;;;;;5057296;28;20686;-44
2022/06/07 07:04:48;;;;;;;5.97;1.90;;;18.70;99.90;;;;;;5048955;28;20236;-44
2022/06/07 07:07:17;;;;;;;5.32;2.00;;;18.80;99.90;;;;;;5046331;28;20259;-44
2022/06/07 07:09:50;;;;;;;4.60;2.15;;;18.90;99.90;;;;;;5038108;28;20201;-43
2022/06/07 07:12:17;;;;;;;4.63;1.98;;;18.80;99.90;;;;;;5060098;28;20526;-44
2022/06/07 07:14:48;;;;;;;6.00;2.05;;;18.90;99.90;;;;;;5063127;28;20253;-44
2022/06/07 07:17:23;;;;;;;7.57;2.38;;;19.00;99.90;;;;;;5041860;28;20215;-44
2022/06/07 07:19:51;;;;;;;5.05;2.15;;;19.10;99.90;;;;;;5046974;28;20195;-44
2022/06/07 07:22:26;;;;;;;7.78;2.25;;;19.10;99.90;;;;;;5051182;28;20205;-43
2022/06/07 07:24:53;;;;;;;6.13;2.08;;;19.20;99.90;;;;;;5047417;28;20211;-43
2022/06/07 07:27:20;;;;;;;7.95;2.08;;;19.30;99.90;;;;;;5048826;28;20234;-43
2022/06/07 07:29:50;;;;;;;3.47;1.58;;;19.40;99.90;;;;;;5053095;28;20204;-43
2022/06/07 07:32:17;;;;;;;5.95;1.67;;;19.40;99.90;;;;;;5060527;28;20209;-44
2022/06/07 07:34:44;;;;;;;3.83;1.77;;;19.40;99.90;;;;;;5055945;28;20266;-44
2022/06/07 07:37:14;;;;;;;4.38;1.50;;;19.50;99.90;;;;;;5045309;28;20228;-44
2022/06/07 07:39:41;;;;;;;3.35;1.50;;;19.50;99.90;;;;;;5035150;28;20208;-43
2022/06/07 07:42:11;;;;;;;3.92;1.77;;;19.60;99.90;;;;;;5058182;28;20330;-44
2022/06/07 07:44:38;;;;;;;4.63;2.05;;;19.70;99.90;;;;;;5051222;28;20208;-43
2022/06/07 07:47:08;;;;;;;2.00;1.65;;;19.80;99.90;;;;;;5051652;28;20661;-43
2022/06/07 07:49:35;;;;;;;4.20;1.52;;;19.90;99.90;;;;;;5057162;28;20204;-43
2022/06/07 07:52:05;;;;;;;6.53;2.10;;;20.00;99.90;;;;;;5050340;28;20288;-43
2022/06/07 07:54:35;;;;;;;3.95;1.40;;;20.00;99.90;;;;;;5030849;28;20211;-34
2022/06/07 07:57:02;;;;;;;3.17;1.33;;;20.10;99.90;;;;;;5045726;28;20697;-34
2022/06/07 07:59:34;;;;;;;3.58;1.42;;;20.20;99.90;;;;;;5046618;28;20307;-34
2022/06/07 08:02:02;;;;;;;5.30;1.88;;;20.30;99.90;;;;;;5057732;28;20203;-34
2022/06/07 08:04:33;;;;;;;8.57;2.03;;;20.40;99.90;;;;;;5050381;28;20228;-34
2022/06/07 08:07:01;;;;;;;5.90;1.63;;;20.50;99.90;;;;;;5059666;28;20224;-34
2022/06/07 08:09:30;;;;;;;3.75;1.58;;;20.50;99.90;;;;;;5053729;28;20200;-34
2022/06/07 08:11:59;;;;;;;8.40;1.55;;;20.60;99.90;;;;;;5053263;28;20617;-34
2022/06/07 08:14:28;;;;;;;2.35;1.30;;;20.60;99.90;;;;;;5036895;28;20782;-34
2022/06/07 08:16:57;;;;;;;3.70;1.33;;;20.70;99.90;;;;;;5048099;28;20558;-34
2022/06/07 08:19:24;;;;;;;2.25;1.10;;;20.70;99.90;;;;;;5064456;28;20694;-34
2022/06/07 08:21:54;;;;;;;3.53;1.30;;;20.80;99.90;;;;;;5059019;28;20306;-34
2022/06/07 08:24:26;;;;;;;2.50;1.00;;;20.90;99.90;;;;;;5048687;28;20203;-34
2022/06/07 08:26:53;;;;;;;1.88;1.20;;;20.90;99.90;;;;;;5048935;28;20224;-34
2022/06/07 08:29:20;;;;;;;2.53;1.10;;;21.00;99.90;;;;;;5040551;28;20673;-34
2022/06/07 08:31:50;;;;;;;3.35;1.05;;;21.00;99.90;;;;;;5033561;28;20200;-35
2022/06/07 08:39:49;;;;;;;5.15;1.60;;;21.00;99.90;;;;;;5065730;28;20693;-34
2022/06/07 08:42:26;;;;;;;3.38;1.15;;;21.00;99.90;;;;;;5063906;28;20214;-34
2022/06/07 08:44:58;;;;;;;3.08;1.08;;;21.00;99.90;;;;;;5037031;28;20208;-34
2022/06/07 08:48:13;;;;;;;3.88;1.08;;;21.00;99.90;;;;;;5030386;28;20228;-34
2022/06/07 08:50:52;;;;;;;2.63;1.30;;;21.00;99.90;;;;;;5011344;28;20906;-34
2022/06/07 08:53:30;;;;;;;1.15;1.02;;;21.00;99.90;;;;;;5050565;28;20219;-34
2022/06/07 08:56:00;;;;;;;3.42;1.38;;;21.00;99.90;;;;;;5049707;28;20593;-34
2022/06/07 08:58:37;;;;;;;3.63;1.30;;;21.00;99.90;;;;;;5055279;28;20214;-34
2022/06/07 09:01:37;;;;;;;2.13;1.10;;;21.00;99.90;;;;;;5050574;28;20240;-34
2022/06/07 09:04:14;;;;;;;2.80;1.20;;;21.00;99.90;;;;;;5041325;28;20254;-34
2022/06/07 09:06:47;;;;;;;2.08;1.20;;;21.10;99.90;;;;;;5051432;28;20239;-34
2022/06/07 09:09:18;;;;;;;2.25;0.95;;;21.10;99.90;;;;;;5048934;28;20201;-34
2022/06/07 09:12:10;;;;;;;5.32;1.50;;;21.20;99.90;;;;;;5029760;28;20683;-34
2022/06/07 09:14:50;;;;;;;2.60;1.23;;;21.20;99.90;;;;;;5046562;28;20200;-34
2022/06/07 09:17:30;;;;;;;5.43;1.77;;;21.20;99.90;;;;;;5040252;28;20212;-34
2022/06/07 09:20:04;;;;;;;2.40;1.38;;;21.20;99.90;;;;;;5040098;28;20233;-34
2022/06/07 09:22:42;;;;;;;5.30;1.73;;;21.30;99.90;;;;;;5052535;28;20995;-34
2022/06/07 09:25:37;;;;;;;4.88;1.42;;;21.40;99.90;;;;;;5044628;28;20261;-34
2022/06/07 09:28:12;;;;;;;1.98;1.25;;;21.30;99.90;;;;;;5049734;28;20753;-34
2022/06/07 09:30:45;;;;;;;3.17;1.80;;;21.30;99.90;;;;;;5054985;28;20613;-34
2022/06/07 09:33:26;;;;;;;3.67;1.80;;;21.40;99.90;;;;;;5056052;28;20250;-34
2022/06/07 09:36:02;;;;;;;4.95;2.20;;;21.30;99.90;;;;;;5035968;28;20200;-34
2022/06/07 09:38:36;;;;;;;4.35;1.88;;;21.40;99.90;;;;;;5048273;28;20250;-34
2022/06/07 09:41:36;;;;;;;3.85;2.13;;;21.30;99.90;;;;;;5047147;28;20204;-34
2022/06/07 09:44:21;;;;;;;2.88;2.05;;;21.40;99.90;;;;;;5043412;28;20323;-34
2022/06/07 09:46:59;;;;;;;3.47;2.05;;;21.40;99.90;;;;;;5044121;28;20769;-34
2022/06/07 09:49:36;;;;;;;3.22;2.42;;;21.40;99.90;;;;;;5051576;28;20215;-34
2022/06/07 09:52:23;;;;;;;3.67;2.60;;;21.30;99.90;;;;;;5059026;28;20207;-34
2022/06/07 09:54:59;;;;;;;5.30;2.30;;;21.30;99.90;;;;;;5037697;28;20785;-34
2022/06/07 09:57:34;;;;;;;3.80;2.70;;;21.30;99.90;;;;;;5034396;28;20365;-37
2022/06/07 10:00:21;;;;;;;6.20;3.40;;;21.40;99.90;;;;;;5040021;28;20211;-34
2022/06/07 10:03:11;;;;;;;7.45;3.65;;;21.40;99.90;;;;;;5046210;28;20191;-34
2022/06/07 10:05:47;;;;;;;4.53;3.33;;;21.40;99.90;;;;;;5060045;28;20234;-34
2022/06/07 10:08:14;;;;;;;7.30;4.30;;;21.30;99.90;;;;;;5036071;28;20199;-34
2022/06/07 10:11:17;;;;;;;6.25;3.67;;;21.20;99.90;;;;;;5041639;28;20205;-34
2022/06/07 10:13:56;;;;;;;4.05;3.50;;;21.20;99.90;;;;;;5035588;28;20203;-34
2022/06/07 10:16:30;;;;;;;7.25;3.92;;;21.10;99.90;;;;;;5036494;28;20204;-34
2022/06/07 10:19:37;;;;;;;8.30;3.40;;;21.00;99.90;;;;;;5045172;28;20315;-34
2022/06/07 10:22:29;;;;;;;5.18;3.20;;;20.90;99.90;;;;;;5050448;28;20268;-34
2022/06/07 10:25:21;;;;;;;7.53;3.35;;;20.90;99.90;;;;;;5062646;28;20205;-34
2022/06/07 10:28:15;;;;;;;7.28;3.45;;;20.80;99.90;;;;;;5046582;28;20228;-34
2022/06/07 10:31:30;;;;;;;4.55;2.70;;;20.80;99.90;;;;;;5036245;28;20195;-34
2022/06/07 10:34:04;;;;;;;4.47;2.70;;;20.80;99.90;;;;;;5013686;28;20212;-34
2022/06/07 10:36:45;;;;;;;3.60;2.63;;;20.80;99.90;;;;;;5026656;28;20242;-33
2022/06/07 10:39:40;;;;;;;3.83;2.15;;;20.70;99.90;;;;;;5058877;28;21008;-34
2022/06/07 10:42:34;;;;;;;4.07;2.42;;;20.70;99.90;;;;;;5049554;28;20247;-34
2022/06/07 10:45:22;;;;;;;4.10;2.55;;;20.70;99.90;;;;;;5034208;28;20243;-34
2022/06/07 10:47:58;;;;;;;3.00;2.28;;;20.60;99.90;;;;;;5041637;28;20216;-34
2022/06/07 10:50:31;;;;;;;3.33;2.10;;;20.60;99.90;;;;;;5040990;28;20297;-34
2022/06/07 10:53:06;;;;;;;4.60;2.30;;;20.60;99.90;;;;;;5037477;28;20257;-33
2022/06/07 10:55:45;;;;;;;2.90;2.17;;;20.60;99.90;;;;;;5042280;28;20285;-34
2022/06/07 10:58:45;;;;;;;4.72;2.53;;;20.60;99.90;;;;;;5039948;28;20732;-34
2022/06/07 11:01:18;;;;;;;4.40;2.58;;;20.70;99.90;;;;;;5039564;28;20258;-34
2022/06/07 11:10:26;;;;;;;3.65;2.33;;;20.70;99.90;;;;;;5048144;28;20196;-34
2022/06/07 11:13:21;;;;;;;2.85;1.98;;;20.60;99.90;;;;;;5046339;28;20691;-34
2022/06/07 11:16:04;;;;;;;4.93;2.17;;;20.60;99.90;;;;;;5031783;28;20201;-34
2022/06/07 11:18:33;;;;;;;2.67;2.20;;;20.60;99.90;;;;;;5035291;28;20202;-34
2022/06/07 11:21:03;;;;;;;2.42;1.92;;;20.60;99.90;;;;;;5035876;28;20821;-34
2022/06/07 11:23:37;;;;;;;2.70;2.05;;;20.60;99.90;;;;;;5036090;28;20227;-34
2022/06/07 11:26:06;;;;;;;3.75;2.50;;;20.60;99.90;;;;;;5038573;28;20216;-34
2022/06/07 11:28:41;;;;;;;4.25;2.55;;;20.60;99.90;;;;;;5036262;28;20317;-33
2022/06/07 11:31:23;;;;;;;3.92;2.40;;;20.60;99.90;;;;;;5036736;28;20243;-33
2022/06/07 11:33:50;;;;;;;2.40;2.20;;;20.60;99.90;;;;;;5039565;28;20204;-34
2022/06/07 11:36:18;;;;;;;3.95;2.20;;;20.60;99.90;;;;;;5042022;28;20337;-33
2022/06/07 11:38:54;;;;;;;3.08;2.15;;;20.60;99.90;;;;;;5043061;28;20566;-33
2022/06/07 11:41:36;;;;;;;3.70;2.65;;;20.60;99.90;;;;;;5030052;28;20288;-34
2022/06/07 11:44:12;;;;;;;6.47;2.67;;;20.60;99.90;;;;;;5037805;28;20257;-33
2022/06/07 11:46:52;;;;;;;4.68;2.50;;;20.60;99.90;;;;;;5041449;28;20222;-34
2022/06/07 11:49:26;;;;;;;2.92;2.50;;;20.60;99.90;;;;;;5054891;28;20269;-34
2022/06/07 11:52:06;;;;;;;3.53;2.83;;;20.60;99.90;;;;;;5040051;28;20196;-34
2022/06/07 11:54:46;;;;;;;3.85;3.15;;;20.60;99.90;;;;;;5041421;28;20303;-34
2022/06/07 11:57:41;;;;;;;3.55;2.33;;;20.70;99.90;;;;;;5041112;28;20253;-34
2022/06/07 12:00:21;;;;;;;4.22;2.55;;;20.70;99.90;;;;;;5059466;28;20307;-34
2022/06/07 12:03:00;;;;;;;3.38;2.83;;;20.80;99.90;;;;;;5042801;28;20668;-34
2022/06/07 12:05:40;;;;;;;3.78;2.60;;;20.90;99.90;;;;;;5046207;28;20244;-34
2022/06/07 12:08:21;;;;;;;6.53;2.65;;;20.90;99.90;;;;;;5040777;28;20655;-34
2022/06/07 12:11:05;;;;;;;5.07;2.42;;;20.90;99.90;;;;;;5041885;28;20306;-34
2022/06/07 12:13:51;;;;;;;3.53;2.30;;;21.00;99.90;;;;;;5039080;28;20253;-34
2022/06/07 12:16:30;;;;;;;3.05;2.67;;;21.10;99.90;;;;;;5032705;28;20273;-34
2022/06/07 12:19:04;;;;;;;5.78;2.47;;;21.20;99.90;;;;;;5042076;28;20204;-34
2022/06/07 12:21:41;;;;;;;2.78;2.40;;;21.20;99.90;;;;;;5048651;28;20227;-34
2022/06/07 12:24:14;;;;;;;3.72;2.65;;;21.30;99.90;;;;;;5037996;28;20203;-34
2022/06/07 12:26:47;;;;;;;2.70;2.50;;;21.30;99.90;;;;;;5030806;28;20581;-34
2022/06/07 12:29:17;;;;;;;2.65;2.45;;;21.50;99.90;;;;;;5042375;28;20605;-34
2022/06/07 12:31:54;;;;;;;5.90;3.20;;;21.50;99.90;;;;;;5051764;28;20258;-34
2022/06/07 12:34:31;;;;;;;5.03;3.03;;;21.60;99.90;;;;;;5047756;28;20677;-34
2022/06/07 12:37:11;;;;;;;4.50;2.90;;;21.70;99.90;;;;;;5041751;28;20667;-34
2022/06/07 12:39:49;;;;;;;6.53;3.47;;;21.80;99.90;;;;;;5059186;28;20229;-34
2022/06/07 12:42:21;;;;;;;4.70;3.15;;;21.80;99.90;;;;;;5053057;28;20207;-34
2022/06/07 12:44:56;;;;;;;6.00;3.08;;;21.90;99.90;;;;;;5045005;28;20331;-34
2022/06/07 12:47:36;;;;;;;5.28;3.22;;;22.00;99.90;;;;;;5049417;28;20222;-34
2022/06/07 12:50:19;;;;;;;3.28;2.60;;;22.00;99.90;;;;;;5047699;28;20247;-34
2022/06/07 12:52:54;;;;;;;2.88;2.42;;;22.10;99.90;;;;;;5034377;28;20295;-34
2022/06/07 12:55:24;;;;;;;4.32;2.80;;;22.20;99.90;;;;;;5060189;28;20299;-34
2022/06/07 12:57:55;;;;;;;4.57;3.08;;;22.20;99.90;;;;;;5048131;28;20195;-34
2022/06/07 13:00:41;;;;;;;3.75;2.90;;;22.30;99.90;;;;;;5044694;28;20404;-34
2022/06/07 13:03:22;;;;;;;4.05;2.60;;;22.30;99.90;;;;;;5047767;28;20205;-34
2022/06/07 13:06:05;;;;;;;3.67;3.33;;;22.40;99.90;;;;;;5043378;28;20235;-34
2022/06/07 13:08:36;;;;;;;3.85;2.97;;;22.40;99.90;;;;;;5050932;28;20331;-34
2022/06/07 13:11:10;;;;;;;4.10;3.70;;;22.50;99.90;;;;;;5047484;28;20948;-34
2022/06/07 13:13:40;;;;;;;4.50;3.47;;;22.50;99.90;;;;;;5040725;28;20197;-34
2022/06/07 13:16:08;;;;;;;4.03;3.17;;;22.60;99.90;;;;;;5035443;28;20247;-34
2022/06/07 13:18:41;;;;;;;4.22;3.83;;;22.60;99.90;;;;;;5040237;28;20605;-34
2022/06/07 13:21:24;;;;;;;4.57;4.18;;;22.70;99.90;;;;;;5039808;28;20605;-34
2022/06/07 13:23:55;;;;;;;4.70;4.30;;;22.80;99.90;;;;;;5052339;28;20203;-34
2022/06/07 13:26:42;;;;;;;5.80;5.03;;;22.80;99.90;;;;;;5047448;28;20212;-34
2022/06/07 13:29:14;;;;;;;5.60;5.10;;;22.80;99.90;;;;;;5058733;28;20563;-34
2022/06/07 13:31:44;;;;;;;4.75;4.22;;;22.80;99.90;;;;;;5031099;28;20630;-34
2022/06/07 13:34:22;;;;;;;5.20;4.78;;;22.80;99.90;;;;;;5041483;28;20303;-34
2022/06/07 13:37:10;;;;;;;5.13;4.53;;;22.80;99.90;;;;;;5039397;28;20243;-34
2022/06/07 13:39:42;;;;;;;5.22;4.35;;;22.80;99.90;;;;;;5033455;28;20286;-34